Time;durP1;ratioP1;P1;durP2;ratioP2;P2;SDS_P1;SDS_P2;PMS_P1;PMS_P2;Temp;Humidity;BMP_temperature;BMP_pressure;BME280_temperature;BME280_humidity;BME280_pressure;Samples;Min_cycle;Max_cycle;Signal;HPM_P1;HPM_P2
2023/05/21 00:00:02;;;;;;;8.20;6.00;;;;;;;13.34;84.50;101173.95;106327;1259;61225;-74
2023/05/21 00:02:29;;;;;;;8.00;6.30;;;;;;;13.32;84.52;101168.95;106398;1259;61256;-73
2023/05/21 00:04:56;;;;;;;9.50;6.50;;;;;;;13.29;84.67;101164.98;106155;1261;73465;-74
2023/05/21 00:07:24;;;;;;;7.60;6.40;;;;;;;13.27;84.96;101165.60;106293;1264;70652;-73
2023/05/21 00:09:51;;;;;;;8.20;6.20;;;;;;;13.23;85.05;101162.44;108116;1259;71437;-73
2023/05/21 00:12:18;;;;;;;7.60;6.60;;;;;;;13.20;85.15;101158.77;107304;1259;61361;-73
2023/05/21 00:14:45;;;;;;;10.00;6.70;;;;;;;13.17;85.34;101156.66;106159;1259;61370;-73
2023/05/21 00:17:12;;;;;;;7.70;6.30;;;;;;;13.13;85.41;101160.27;106033;1264;74769;-73
2023/05/21 00:19:39;;;;;;;8.80;6.60;;;;;;;13.10;85.74;101152.16;106435;1262;69598;-73
2023/05/21 00:22:06;;;;;;;9.50;6.40;;;;;;;13.06;85.96;101150.73;106518;1263;73090;-73
2023/05/21 00:24:33;;;;;;;8.70;6.60;;;;;;;13.04;86.21;101146.67;106249;1265;61311;-73
2023/05/21 00:27:00;;;;;;;8.80;6.30;;;;;;;13.01;86.46;101144.77;106301;1260;61263;-73
2023/05/21 00:29:28;;;;;;;7.40;6.30;;;;;;;12.98;86.71;101139.94;106961;1259;73472;-73
2023/05/21 00:31:55;;;;;;;7.30;6.30;;;;;;;12.96;86.83;101139.13;106211;1259;69966;-72
2023/05/21 00:34:22;;;;;;;10.00;6.60;;;;;;;12.94;87.07;101135.16;106145;1259;72700;-73
2023/05/21 00:36:49;;;;;;;9.70;6.70;;;;;;;12.92;87.29;101131.82;107876;1259;62036;-72
2023/05/21 00:39:16;;;;;;;8.40;6.60;;;;;;;12.90;87.60;101131.50;108737;1260;59755;-72
2023/05/21 00:41:45;;;;;;;9.60;6.50;;;;;;;12.89;87.80;101130.85;107100;1264;74651;-74
2023/05/21 00:44:12;;;;;;;7.90;6.60;;;;;;;12.88;87.70;101127.02;107241;1259;69662;-73
2023/05/21 00:46:40;;;;;;;8.10;6.40;;;;;;;12.87;87.75;101127.30;107588;1259;71817;-74
2023/05/21 00:49:07;;;;;;;8.30;6.20;;;;;;;12.85;87.95;101123.91;107432;1259;62096;-74
2023/05/21 00:51:34;;;;;;;8.90;6.70;;;;;;;12.84;88.21;101123.16;106678;1261;61189;-72
2023/05/21 00:54:02;;;;;;;8.20;6.30;;;;;;;12.82;88.16;101116.82;106625;1261;74600;-75
2023/05/21 00:56:29;;;;;;;8.40;6.60;;;;;;;12.82;88.08;101118.15;106799;1259;71204;-73
2023/05/21 00:58:57;;;;;;;9.10;6.80;;;;;;;12.81;88.33;101114.85;106870;1259;73916;-73
2023/05/21 01:01:24;;;;;;;9.50;6.50;;;;;;;12.80;88.40;101113.19;106715;1259;61741;-73
2023/05/21 01:03:53;;;;;;;7.70;6.50;;;;;;;12.80;88.37;101112.35;107561;1261;59067;-73
2023/05/21 01:06:19;;;;;;;8.90;6.90;;;;;;;12.78;88.47;101107.34;106608;1261;73219;-73
2023/05/21 01:08:46;;;;;;;7.50;6.50;;;;;;;12.78;88.37;101109.51;107278;1259;70241;-73
2023/05/21 01:11:13;;;;;;;8.80;6.10;;;;;;;12.77;88.68;101108.78;106965;1259;72166;-73
2023/05/21 01:13:41;;;;;;;9.00;6.60;;;;;;;12.75;88.86;101109.02;107527;1259;61173;-73
2023/05/21 01:16:09;;;;;;;7.50;6.10;;;;;;;12.74;88.86;101108.36;107004;1259;61722;-73
2023/05/21 01:18:37;;;;;;;11.00;6.30;;;;;;;12.73;88.83;101110.29;107059;1264;73504;-74
2023/05/21 01:21:06;;;;;;;9.90;6.20;;;;;;;12.73;89.05;101106.40;107101;1264;70012;-73
2023/05/21 01:23:33;;;;;;;8.50;6.40;;;;;;;12.71;89.04;101106.92;106815;1259;72442;-73
2023/05/21 01:26:00;;;;;;;8.70;6.20;;;;;;;12.71;88.97;101106.09;107118;1259;62050;-74
2023/05/21 01:28:28;;;;;;;12.10;6.70;;;;;;;12.71;89.08;101106.63;107159;1259;60305;-74
2023/05/21 01:30:59;;;;;;;9.20;7.10;;;;;;;12.70;89.01;101109.89;107143;1259;74459;-74
2023/05/21 01:33:40;;;;;;;9.30;6.60;;;;;;;12.69;89.07;101107.58;107610;1259;71267;-73
2023/05/21 01:36:12;;;;;;;7.70;6.50;;;;;;;12.66;89.24;101102.37;106373;1259;72628;-74
2023/05/21 01:38:50;;;;;;;6.50;5.80;;;;;;;12.64;89.18;101103.33;106935;1266;62069;-74
2023/05/21 01:41:18;;;;;;;9.30;5.80;;;;;;;12.61;89.27;101103.45;107586;1259;59385;-72
2023/05/21 01:43:46;;;;;;;8.00;6.50;;;;;;;12.60;89.38;101099.99;107596;1265;74026;-71
2023/05/21 01:46:17;;;;;;;8.10;5.90;;;;;;;12.58;89.42;101096.88;107427;1266;71478;-72
2023/05/21 01:48:45;;;;;;;7.30;6.30;;;;;;;12.56;89.30;101102.23;107425;1259;72092;-72
2023/05/21 01:51:12;;;;;;;8.80;6.50;;;;;;;12.54;89.53;101102.73;107468;1259;61536;-72
2023/05/21 01:53:40;;;;;;;7.50;6.20;;;;;;;12.52;89.69;101100.81;107499;1259;59438;-72
2023/05/21 01:56:07;;;;;;;9.80;6.60;;;;;;;12.51;89.54;101100.07;107607;1260;74031;-72
2023/05/21 01:58:33;;;;;;;10.40;6.20;;;;;;;12.49;89.63;101093.76;107612;1265;71176;-72
2023/05/21 02:01:01;;;;;;;7.90;6.10;;;;;;;12.48;89.71;101096.87;107523;1259;71467;-72
2023/05/21 02:03:29;;;;;;;7.00;5.80;;;;;;;12.46;89.67;101099.00;107408;1260;62195;-73
2023/05/21 02:05:57;;;;;;;7.20;6.30;;;;;;;12.45;89.54;101101.14;107472;1266;60087;-72
2023/05/21 02:08:26;;;;;;;8.30;6.00;;;;;;;12.41;89.63;101097.08;107608;1259;73716;-72
2023/05/21 02:10:53;;;;;;;8.10;6.30;;;;;;;12.39;89.50;101100.19;107644;1259;71432;-73
2023/05/21 02:13:21;;;;;;;7.50;5.60;;;;;;;12.38;89.79;101101.95;107254;1266;73342;-73
2023/05/21 02:15:53;;;;;;;7.80;6.40;;;;;;;12.36;89.91;101102.30;107481;1265;63008;-73
2023/05/21 02:18:21;;;;;;;8.30;6.40;;;;;;;12.33;89.90;101095.69;107437;1259;60210;-73
2023/05/21 02:20:48;;;;;;;8.90;6.40;;;;;;;12.32;89.89;101093.05;107495;1259;74303;-73
2023/05/21 02:23:15;;;;;;;7.30;5.90;;;;;;;12.29;89.86;101100.61;107584;1265;71552;-73
2023/05/21 02:25:42;;;;;;;8.90;6.20;;;;;;;12.26;90.14;101098.87;107465;1266;72431;-73
2023/05/21 02:28:09;;;;;;;8.50;6.10;;;;;;;12.23;90.03;101096.27;107627;1259;60581;-73
2023/05/21 02:30:36;;;;;;;8.20;6.50;;;;;;;12.20;89.99;101094.48;107654;1260;59447;-73
2023/05/21 02:33:03;;;;;;;8.10;5.80;;;;;;;12.17;90.08;101097.85;107465;1266;74339;-73
2023/05/21 02:35:31;;;;;;;9.30;5.80;;;;;;;12.16;90.24;101096.10;107409;1259;69680;-72
2023/05/21 02:37:58;;;;;;;8.50;6.00;;;;;;;12.14;90.40;101099.88;107451;1267;72422;-72
2023/05/21 02:40:25;;;;;;;8.70;6.10;;;;;;;12.11;90.30;101095.57;107541;1261;61322;-72
2023/05/21 02:42:52;;;;;;;8.70;5.80;;;;;;;12.08;90.54;101092.23;107492;1259;60119;-72
2023/05/21 02:45:19;;;;;;;7.60;6.40;;;;;;;12.05;90.38;101090.79;107461;1259;74781;-72
2023/05/21 02:47:46;;;;;;;9.10;6.10;;;;;;;12.02;90.62;101090.40;107624;1259;71109;-72
2023/05/21 02:50:14;;;;;;;8.60;5.70;;;;;;;12.00;90.70;101087.42;107641;1259;71735;-72
2023/05/21 02:52:41;;;;;;;9.20;5.60;;;;;;;11.98;90.74;101087.49;107410;1266;62330;-72
2023/05/21 02:55:08;;;;;;;7.60;6.00;;;;;;;11.96;90.76;101087.01;107591;1260;59613;-73
2023/05/21 02:57:36;;;;;;;6.50;5.30;;;;;;;11.94;90.84;101086.85;107623;1265;73626;-73
2023/05/21 03:00:04;;;;;;;8.20;6.00;;;;;;;11.93;90.86;101079.62;107594;1260;70928;-73
2023/05/21 03:02:32;;;;;;;8.70;5.80;;;;;;;11.90;90.90;101080.63;107619;1260;71495;-73
2023/05/21 03:04:59;;;;;;;8.90;6.00;;;;;;;11.87;91.05;101080.02;107475;1262;61440;-73
2023/05/21 03:07:26;;;;;;;9.40;5.90;;;;;;;11.85;91.22;101075.63;107625;1262;59515;-73
2023/05/21 03:09:53;;;;;;;7.90;6.00;;;;;;;11.84;91.22;101074.88;107555;1264;75153;-73
2023/05/21 03:12:20;;;;;;;8.80;5.90;;;;;;;11.82;91.08;101075.38;107654;1259;71303;-73
2023/05/21 03:14:50;;;;;;;6.90;5.60;;;;;;;11.81;91.33;101079.23;107442;1259;73063;-73
2023/05/21 03:17:17;;;;;;;7.50;5.70;;;;;;;11.79;91.35;101073.14;107610;1260;60831;-73
2023/05/21 03:19:44;;;;;;;7.80;5.50;;;;;;;11.78;91.35;101071.48;107395;1262;62027;-73
2023/05/21 03:22:11;;;;;;;8.20;5.50;;;;;;;11.77;91.33;101071.06;107445;1267;75322;-73
2023/05/21 03:24:38;;;;;;;10.80;6.00;;;;;;;11.77;91.51;101070.73;107625;1259;71541;-73
2023/05/21 03:27:06;;;;;;;6.50;5.30;;;;;;;11.74;91.54;101065.85;107426;1261;72103;-73
2023/05/21 03:29:33;;;;;;;6.70;5.20;;;;;;;11.72;91.63;101066.69;107605;1259;63118;-73
2023/05/21 03:32:01;;;;;;;9.70;5.70;;;;;;;11.69;91.61;101059.20;107606;1265;61518;-73
2023/05/21 03:34:29;;;;;;;8.30;5.60;;;;;;;11.66;91.62;101058.45;107485;1263;73730;-73
2023/05/21 03:36:55;;;;;;;8.50;5.70;;;;;;;11.65;92.00;101053.14;107482;1260;69662;-73
2023/05/21 03:39:23;;;;;;;7.00;5.40;;;;;;;11.65;92.15;101058.83;107357;1266;73244;-73
2023/05/21 03:41:50;;;;;;;8.50;5.50;;;;;;;11.65;92.23;101057.53;107386;1260;61789;-73
2023/05/21 03:44:17;;;;;;;7.20;5.80;;;;;;;11.67;92.27;101055.55;107428;1266;59651;-73
2023/05/21 03:46:44;;;;;;;7.00;5.20;;;;;;;11.69;92.38;101055.55;107370;1260;74090;-73
2023/05/21 03:49:12;;;;;;;8.70;5.40;;;;;;;11.71;92.27;101057.40;107349;1266;71317;-73
2023/05/21 03:51:39;;;;;;;7.60;5.70;;;;;;;11.74;92.13;101053.83;107430;1260;72917;-73
2023/05/21 03:54:06;;;;;;;7.60;5.30;;;;;;;11.77;92.22;101062.39;107425;1266;63229;-73
2023/05/21 03:56:32;;;;;;;7.70;5.10;;;;;;;11.80;92.12;101066.17;107592;1261;59302;-73
2023/05/21 03:59:00;;;;;;;8.50;5.40;;;;;;;11.83;91.79;101066.23;107458;1261;74218;-73
2023/05/21 04:01:27;;;;;;;9.50;5.60;;;;;;;11.86;91.79;101067.35;107452;1261;71822;-73
2023/05/21 04:03:54;;;;;;;7.00;5.20;;;;;;;11.89;91.62;101068.86;107456;1259;72586;-73
2023/05/21 04:06:23;;;;;;;8.70;5.20;;;;;;;11.92;91.58;101069.54;107370;1260;61718;-73
2023/05/21 04:08:51;;;;;;;8.00;5.50;;;;;;;11.94;91.54;101073.79;107622;1260;61024;-73
2023/05/21 04:11:17;;;;;;;7.80;5.30;;;;;;;11.97;91.59;101073.11;107609;1265;73636;-73
2023/05/21 04:13:45;;;;;;;6.90;5.20;;;;;;;11.99;91.54;101070.87;107413;1261;69690;-73
2023/05/21 04:16:13;;;;;;;9.10;5.70;;;;;;;12.02;91.24;101068.96;107528;1265;72710;-73
2023/05/21 04:18:40;;;;;;;8.60;5.00;;;;;;;12.06;91.31;101075.75;107543;1266;60774;-73
2023/05/21 04:21:11;;;;;;;7.40;4.90;;;;;;;12.11;91.21;101073.73;107473;1264;58917;-73
2023/05/21 04:23:37;;;;;;;7.30;5.20;;;;;;;12.16;91.08;101068.08;107616;1261;75615;-73
2023/05/21 04:26:06;;;;;;;7.90;5.30;;;;;;;12.21;91.07;101070.66;108733;1260;71049;-74
2023/05/21 04:28:34;;;;;;;8.00;5.50;;;;;;;12.26;91.00;101066.71;107219;1260;70658;-73
2023/05/21 04:31:01;;;;;;;7.30;4.70;;;;;;;12.33;90.77;101064.58;107431;1260;61193;-73
2023/05/21 04:33:29;;;;;;;7.60;5.30;;;;;;;12.37;90.60;101063.19;106521;1260;61250;-72
2023/05/21 04:35:56;;;;;;;7.10;4.70;;;;;;;12.43;90.68;101064.09;106303;1261;74497;-72
2023/05/21 04:38:24;;;;;;;8.00;5.10;;;;;;;12.51;90.54;101068.33;107679;1263;69704;-73
2023/05/21 04:40:51;;;;;;;7.40;4.90;;;;;;;12.58;90.24;101065.47;107774;1260;71200;-73
2023/05/21 04:43:25;;;;;;;6.60;4.70;;;;;;;12.64;90.06;101066.73;107975;1260;61310;-73
2023/05/21 04:45:55;;;;;;;8.00;5.20;;;;;;;12.73;90.00;101063.98;106866;1261;61736;-73
2023/05/21 04:48:24;;;;;;;7.80;5.30;;;;;;;12.82;89.84;101065.04;106707;1261;73628;-73
2023/05/21 04:50:52;;;;;;;7.30;5.00;;;;;;;12.92;89.63;101066.11;106609;1261;71479;-73
2023/05/21 04:53:19;;;;;;;8.50;5.20;;;;;;;13.02;89.01;101063.95;105975;1266;72410;-72
2023/05/21 04:55:46;;;;;;;9.50;5.10;;;;;;;13.13;89.16;101062.80;106613;1261;61674;-73
2023/05/21 04:58:16;;;;;;;5.70;4.80;;;;;;;13.24;88.88;101062.69;106050;1260;61870;-73
2023/05/21 05:00:45;;;;;;;6.80;5.00;;;;;;;13.40;88.85;101066.33;106761;1266;74476;-72
2023/05/21 05:03:12;;;;;;;6.90;5.10;;;;;;;13.55;88.27;101065.30;107319;1260;69746;-72
2023/05/21 05:05:39;;;;;;;6.90;5.30;;;;;;;13.67;87.79;101061.14;105836;1265;72921;-74
2023/05/21 05:08:06;;;;;;;7.00;5.50;;;;;;;13.79;87.28;101062.48;106143;1267;61184;-72
2023/05/21 05:10:33;;;;;;;8.40;5.40;;;;;;;13.91;86.91;101063.43;105907;1260;61282;-73
2023/05/21 05:13:00;;;;;;;7.20;5.20;;;;;;;14.01;86.70;101065.31;106858;1259;74780;-73
2023/05/21 05:15:27;;;;;;;9.00;5.60;;;;;;;14.11;86.33;101063.54;105633;1266;70417;-71
2023/05/21 05:17:55;;;;;;;8.80;5.50;;;;;;;14.20;85.87;101064.98;106276;1260;71271;-73
2023/05/21 05:20:22;;;;;;;8.30;5.60;;;;;;;14.28;85.73;101062.63;106471;1266;61762;-73
2023/05/21 05:22:49;;;;;;;7.80;5.70;;;;;;;14.37;85.50;101059.85;106209;1265;61213;-72
2023/05/21 05:25:15;;;;;;;8.00;5.80;;;;;;;14.44;84.90;101059.27;106019;1260;75751;-75
2023/05/21 05:27:42;;;;;;;7.70;6.10;;;;;;;14.51;84.66;101055.59;105777;1266;70557;-73
2023/05/21 05:30:09;;;;;;;8.70;6.10;;;;;;;14.57;84.00;101063.19;106487;1260;71618;-72
2023/05/21 05:32:36;;;;;;;9.40;6.30;;;;;;;14.63;84.05;101060.12;105996;1264;61743;-73
2023/05/21 05:35:04;;;;;;;8.90;6.50;;;;;;;14.69;83.55;101059.27;105959;1260;61272;-73
2023/05/21 05:37:32;;;;;;;8.60;6.30;;;;;;;14.75;83.29;101058.60;106965;1263;73461;-73
2023/05/21 05:39:58;;;;;;;9.30;6.50;;;;;;;14.83;83.16;101062.85;106610;1260;71222;-73
2023/05/21 05:42:25;;;;;;;8.70;6.60;;;;;;;14.93;82.92;101061.82;106117;1260;71598;-72
2023/05/21 05:44:52;;;;;;;8.20;6.60;;;;;;;15.02;82.47;101064.39;106138;1261;62100;-72
2023/05/21 05:47:20;;;;;;;8.40;6.80;;;;;;;15.09;82.19;101062.27;106018;1260;61805;-73
2023/05/21 05:49:47;;;;;;;9.10;6.30;;;;;;;15.20;82.14;101057.94;106178;1260;74771;-73
2023/05/21 05:52:14;;;;;;;9.30;6.40;;;;;;;15.32;81.48;101057.55;106422;1264;71751;-73
2023/05/21 05:54:41;;;;;;;8.10;6.50;;;;;;;15.36;80.77;101058.97;106556;1263;71207;-73
2023/05/21 05:57:08;;;;;;;10.10;6.70;;;;;;;15.39;80.69;101059.84;106526;1264;62633;-73
2023/05/21 05:59:35;;;;;;;7.90;6.70;;;;;;;15.49;80.77;101064.20;106384;1260;61181;-74
2023/05/21 06:02:02;;;;;;;9.10;6.90;;;;;;;15.61;80.29;101061.31;105892;1260;75100;-73
2023/05/21 06:04:28;;;;;;;9.40;6.60;;;;;;;15.68;79.59;101060.55;105881;1266;69965;-75
2023/05/21 06:06:59;;;;;;;9.30;6.50;;;;;;;15.75;79.49;101054.48;106020;1261;72698;-73
2023/05/21 06:09:25;;;;;;;10.40;6.60;;;;;;;15.82;78.95;101061.92;106572;1260;61420;-73
2023/05/21 06:11:52;;;;;;;9.50;6.60;;;;;;;15.86;78.80;101060.98;106242;1263;61273;-72
2023/05/21 06:14:19;;;;;;;9.30;6.90;;;;;;;15.94;78.92;101054.17;106557;1260;73500;-72
2023/05/21 06:16:46;;;;;;;10.30;7.30;;;;;;;15.98;78.01;101058.52;106597;1266;71146;-73
2023/05/21 06:19:13;;;;;;;8.20;6.70;;;;;;;16.00;78.01;101061.23;106092;1265;71817;-74
2023/05/21 06:21:40;;;;;;;9.90;7.50;;;;;;;16.03;78.05;101062.06;106151;1260;62025;-74
2023/05/21 06:24:07;;;;;;;9.00;7.30;;;;;;;16.12;78.06;101059.28;106369;1264;61256;-74
2023/05/21 06:26:33;;;;;;;9.90;7.50;;;;;;;16.18;77.92;101054.85;106611;1261;74713;-71
2023/05/21 06:29:01;;;;;;;11.30;7.70;;;;;;;16.29;77.69;101055.76;106590;1260;69929;-72
2023/05/21 06:31:28;;;;;;;9.80;8.00;;;;;;;16.40;77.47;101053.11;106768;1261;72458;-73
2023/05/21 06:33:55;;;;;;;10.60;8.00;;;;;;;16.54;77.35;101057.48;106833;1261;61266;-74
2023/05/21 06:36:24;;;;;;;8.80;7.30;;;;;;;16.67;76.56;101055.46;106236;1260;61747;-73
2023/05/21 06:38:51;;;;;;;12.50;7.80;;;;;;;16.80;76.48;101056.39;106343;1260;75021;-74
2023/05/21 06:41:18;;;;;;;9.90;7.70;;;;;;;16.95;76.45;101053.01;106463;1264;69914;-74
2023/05/21 06:43:45;;;;;;;8.60;7.20;;;;;;;17.16;76.33;101053.87;106276;1260;71598;-72
2023/05/21 06:46:12;;;;;;;10.10;8.30;;;;;;;17.35;75.56;101054.23;106698;1263;62097;-73
2023/05/21 06:48:39;;;;;;;10.10;8.40;;;;;;;17.45;74.46;101052.98;106730;1260;61340;-74
2023/05/21 06:51:06;;;;;;;11.00;8.50;;;;;;;17.56;74.34;101056.77;106244;1260;74728;-72
2023/05/21 06:53:33;;;;;;;10.50;8.80;;;;;;;17.67;74.19;101056.77;107142;1260;69993;-74
2023/05/21 06:56:00;;;;;;;14.10;10.40;;;;;;;17.80;73.46;101056.30;107012;1260;70776;-75
2023/05/21 06:58:30;;;;;;;11.40;8.80;;;;;;;17.85;72.39;101053.58;107575;1260;60742;-75
2023/05/21 07:00:57;;;;;;;11.40;8.70;;;;;;;17.95;72.59;101051.84;107591;1263;59335;-74
2023/05/21 07:03:25;;;;;;;11.20;9.30;;;;;;;18.10;72.14;101050.25;107468;1260;74359;-75
2023/05/21 07:05:52;;;;;;;10.80;8.90;;;;;;;18.24;71.97;101052.36;107591;1263;71253;-75
2023/05/21 07:08:19;;;;;;;11.00;9.20;;;;;;;18.40;71.62;101052.61;107543;1260;72682;-75
2023/05/21 07:10:46;;;;;;;11.40;9.30;;;;;;;18.53;70.76;101050.82;107596;1264;60552;-75
2023/05/21 07:13:14;;;;;;;11.70;9.10;;;;;;;18.58;70.32;101048.52;107431;1260;59218;-75
2023/05/21 07:15:40;;;;;;;12.70;9.80;;;;;;;18.68;70.62;101048.47;107554;1260;74269;-75
2023/05/21 07:18:08;;;;;;;11.80;9.40;;;;;;;18.83;70.54;101040.79;107428;1259;71692;-75
2023/05/21 07:20:35;;;;;;;12.20;9.70;;;;;;;18.98;70.03;101043.48;107499;1260;70843;-75
2023/05/21 07:23:03;;;;;;;10.80;9.20;;;;;;;19.09;69.70;101046.87;107374;1266;60159;-75
2023/05/21 07:25:30;;;;;;;13.30;9.70;;;;;;;19.22;69.15;101039.21;107491;1260;59582;-76
2023/05/21 07:27:57;;;;;;;11.80;9.80;;;;;;;19.27;68.09;101033.77;107457;1260;75494;-75
2023/05/21 07:30:25;;;;;;;17.40;12.50;;;;;;;19.30;68.03;101031.45;107527;1259;70282;-76
2023/05/21 07:32:52;;;;;;;12.80;10.20;;;;;;;19.42;68.40;101029.08;107406;1260;72447;-75
2023/05/21 07:35:20;;;;;;;12.20;9.80;;;;;;;19.50;67.78;101028.36;107649;1263;60982;-74
2023/05/21 07:37:46;;;;;;;12.40;9.80;;;;;;;19.56;67.63;101029.29;107601;1259;60718;-75
2023/05/21 07:40:14;;;;;;;15.00;10.50;;;;;;;19.68;67.71;101034.89;107540;1259;74851;-75
2023/05/21 07:42:40;;;;;;;12.20;10.30;;;;;;;19.84;67.54;101034.45;107446;1260;71573;-74
2023/05/21 07:45:07;;;;;;;12.60;10.30;;;;;;;19.97;66.90;101033.11;107534;1262;74095;-72
2023/05/21 07:47:34;;;;;;;13.90;10.40;;;;;;;20.05;66.25;101035.25;107533;1263;62885;-72
2023/05/21 07:50:03;;;;;;;13.20;10.70;;;;;;;20.15;66.09;101035.79;107562;1259;59501;-72
2023/05/21 07:52:30;;;;;;;14.30;10.90;;;;;;;20.23;65.62;101036.04;107472;1260;74851;-74
2023/05/21 07:54:57;;;;;;;12.60;10.60;;;;;;;20.33;65.67;101041.02;107508;1259;71246;-75
2023/05/21 07:57:23;;;;;;;13.90;11.20;;;;;;;20.41;64.99;101039.27;107351;1261;71484;-74
2023/05/21 07:59:50;;;;;;;12.10;10.50;;;;;;;20.51;64.90;101041.86;107527;1263;61979;-75
2023/05/21 08:02:17;;;;;;;14.10;11.40;;;;;;;20.67;65.21;101036.52;107417;1260;61020;-75
2023/05/21 08:04:45;;;;;;;14.10;11.40;;;;;;;20.83;64.26;101035.34;107625;1259;73158;-75
2023/05/21 08:07:12;;;;;;;13.90;11.60;;;;;;;20.91;63.73;101030.83;107463;1260;71853;-75
2023/05/21 08:09:40;;;;;;;13.60;11.40;;;;;;;20.94;63.36;101031.71;107335;1262;71999;-75
2023/05/21 08:12:07;;;;;;;12.80;11.30;;;;;;;21.03;63.46;101029.87;107409;1259;61474;-74
2023/05/21 08:14:34;;;;;;;13.60;11.40;;;;;;;21.11;63.07;101028.69;107559;1259;59896;-74
2023/05/21 08:17:00;;;;;;;13.60;10.70;;;;;;;21.17;63.08;101027.18;107329;1259;73991;-75
2023/05/21 08:19:27;;;;;;;13.30;11.20;;;;;;;21.26;62.80;101028.67;107594;1259;71427;-74
2023/05/21 08:21:54;;;;;;;13.50;12.00;;;;;;;21.42;63.03;101024.48;107356;1261;73632;-75
2023/05/21 08:24:23;;;;;;;12.70;11.30;;;;;;;21.53;61.96;101026.88;106961;1263;538245;-75
2023/05/21 08:26:49;;;;;;;14.10;11.80;;;;;;;21.52;61.26;101026.65;107360;1261;60568;-74
2023/05/21 08:29:16;;;;;;;12.80;11.20;;;;;;;21.57;61.75;101028.70;107439;1260;74023;-74
2023/05/21 08:31:43;;;;;;;13.30;11.30;;;;;;;21.63;62.04;101032.15;107391;1260;69992;-74
2023/05/21 08:34:11;;;;;;;14.20;11.10;;;;;;;21.69;61.39;101028.16;107557;1259;74150;-74
2023/05/21 08:36:37;;;;;;;13.80;12.20;;;;;;;21.69;60.83;101028.86;107525;1259;60587;-74
2023/05/21 08:39:04;;;;;;;12.90;11.60;;;;;;;21.75;61.13;101026.23;107280;1264;60072;-75
2023/05/21 08:41:34;;;;;;;14.40;12.50;;;;;;;21.89;60.91;101028.64;107546;1260;75068;-73
2023/05/21 08:44:01;;;;;;;13.80;11.60;;;;;;;22.01;60.66;101030.42;107542;1259;69928;-74
2023/05/21 08:46:35;;;;;;;13.40;11.20;;;;;;;22.13;61.15;101028.84;107453;1264;71176;-73
2023/05/21 08:49:02;;;;;;;14.40;11.90;;;;;;;22.31;60.41;101031.63;107484;1266;60447;-74
2023/05/21 08:51:30;;;;;;;14.40;11.20;;;;;;;22.48;60.14;101029.41;107394;1267;60391;-74
2023/05/21 08:54:00;;;;;;;13.30;11.70;;;;;;;22.65;59.82;101028.14;107298;1260;74558;-74
2023/05/21 08:56:30;;;;;;;12.70;11.30;;;;;;;22.78;59.32;101020.89;107407;1264;70891;-74
2023/05/21 08:58:58;;;;;;;11.90;10.70;;;;;;;22.90;58.64;101022.45;107299;1261;72236;-75
2023/05/21 09:01:26;;;;;;;13.50;11.50;;;;;;;22.97;57.83;101015.48;107335;1260;59669;-74
2023/05/21 09:03:56;;;;;;;13.40;11.10;;;;;;;23.10;57.80;101017.14;107552;1259;59210;-74
2023/05/21 09:06:34;;;;;;;12.60;10.90;;;;;;;23.24;57.57;101020.08;107515;1260;73462;-74
2023/05/21 09:09:14;;;;;;;12.90;11.40;;;;;;;23.29;57.39;101024.89;107419;1259;69425;-74
2023/05/21 09:11:42;;;;;;;12.60;11.30;;;;;;;23.39;57.41;101017.76;107534;1260;73546;-74
2023/05/21 09:14:10;;;;;;;12.10;10.90;;;;;;;23.52;56.89;101017.04;107429;1262;60127;-75
2023/05/21 09:16:36;;;;;;;13.30;11.60;;;;;;;23.65;56.34;101020.38;107558;1260;59412;-74
2023/05/21 09:19:03;;;;;;;13.00;11.70;;;;;;;23.78;55.78;101024.73;107520;1259;73590;-74
2023/05/21 09:21:30;;;;;;;12.80;11.00;;;;;;;23.92;55.99;101020.65;107629;1259;70739;-75
2023/05/21 09:23:59;;;;;;;12.90;11.60;;;;;;;24.08;55.42;101018.90;107400;1259;71288;-75
2023/05/21 09:26:26;;;;;;;11.80;10.50;;;;;;;24.17;54.81;101022.55;107534;1259;59169;-75
2023/05/21 09:28:58;;;;;;;12.10;10.80;;;;;;;24.17;54.26;101025.64;107323;1264;59790;-73
2023/05/21 09:31:26;;;;;;;12.90;11.10;;;;;;;24.20;54.31;101025.13;107557;1260;75706;-73
2023/05/21 09:33:56;;;;;;;12.90;11.20;;;;;;;24.22;54.11;101026.89;107593;1259;71789;-73
2023/05/21 09:36:23;;;;;;;17.60;10.70;;;;;;;24.28;54.30;101027.64;107431;1262;72290;-73
2023/05/21 09:38:51;;;;;;;12.60;10.90;;;;;;;24.33;53.85;101028.16;107421;1259;60221;-74
2023/05/21 09:41:30;;;;;;;11.60;10.40;;;;;;;24.32;53.64;101029.89;107392;1266;59481;-74
2023/05/21 09:44:00;;;;;;;12.30;11.00;;;;;;;24.35;54.49;101029.16;107546;1260;74548;-73
2023/05/21 09:46:27;;;;;;;13.80;10.50;;;;;;;24.38;54.10;101024.89;107513;1260;74237;-73
2023/05/21 09:48:54;;;;;;;11.80;10.20;;;;;;;24.45;54.35;101030.16;107443;1260;72952;-73
2023/05/21 09:51:21;;;;;;;11.80;10.50;;;;;;;24.54;54.72;101028.36;107461;1259;60096;-73
2023/05/21 09:53:59;;;;;;;12.10;10.90;;;;;;;24.63;54.87;101025.60;107390;1259;60369;-74
2023/05/21 09:56:30;;;;;;;11.80;10.40;;;;;;;24.73;54.40;101025.98;107462;1259;74746;-73
2023/05/21 09:59:00;;;;;;;11.80;10.40;;;;;;;24.79;53.35;101020.86;107592;1260;69798;-73
2023/05/21 10:01:29;;;;;;;11.20;10.10;;;;;;;24.86;53.45;101021.56;107581;1260;73493;-74
2023/05/21 10:03:58;;;;;;;13.20;10.80;;;;;;;24.95;53.23;101019.65;107475;1265;59507;-73
2023/05/21 10:06:27;;;;;;;13.60;10.20;;;;;;;25.04;53.20;101016.40;107377;1267;60671;-74
2023/05/21 10:08:56;;;;;;;11.60;10.40;;;;;;;25.18;52.85;101014.67;107482;1262;74770;-74
2023/05/21 10:11:25;;;;;;;15.00;10.80;;;;;;;25.28;52.04;101017.02;107435;1262;70562;-73
2023/05/21 10:14:22;;;;;;;12.10;10.70;;;;;;;25.29;52.18;101011.48;107457;1259;72208;-73
2023/05/21 10:16:51;;;;;;;12.70;10.70;;;;;;;25.35;51.87;101008.52;107556;1263;62113;-74
2023/05/21 10:19:19;;;;;;;11.10;9.90;;;;;;;25.47;51.79;101008.67;107537;1259;59585;-74
2023/05/21 10:21:46;;;;;;;11.50;10.30;;;;;;;25.62;52.02;101005.94;107473;1259;72324;-75
2023/05/21 10:24:14;;;;;;;13.70;10.90;;;;;;;25.62;51.25;101002.79;107549;1262;69613;-75
2023/05/21 10:26:41;;;;;;;12.30;10.50;;;;;;;25.65;50.96;101001.60;108343;1259;71987;-74
2023/05/21 10:29:09;;;;;;;12.50;10.70;;;;;;;25.70;50.90;101005.08;108642;1259;60130;-74
2023/05/21 10:31:37;;;;;;;11.50;10.30;;;;;;;25.77;51.16;101006.08;108545;1260;59377;-74
2023/05/21 10:34:07;;;;;;;14.30;12.10;;;;;;;25.98;50.68;101001.03;108758;1259;73610;-75
2023/05/21 10:36:35;;;;;;;12.30;10.40;;;;;;;26.12;50.05;100995.75;108481;1259;70050;-75
2023/05/21 10:39:02;;;;;;;12.00;10.70;;;;;;;26.19;49.77;100997.17;107438;1259;71503;-74
2023/05/21 10:41:39;;;;;;;15.70;11.00;;;;;;;26.26;50.07;100994.45;106608;1261;59843;-76
2023/05/21 10:44:35;;;;;;;12.60;10.50;;;;;;;26.33;49.24;100992.05;106332;1263;61596;-74
2023/05/21 10:47:37;;;;;;;13.60;10.60;;;;;;;26.52;49.26;100986.87;106903;1259;75035;-76
2023/05/21 10:50:26;;;;;;;11.20;10.00;;;;;;;26.74;48.48;100983.52;106509;1260;68869;-75
2023/05/21 10:53:18;;;;;;;11.60;10.10;;;;;;;26.88;48.12;100979.17;105977;1260;71595;-77
2023/05/21 10:55:48;;;;;;;11.10;10.00;;;;;;;26.95;47.83;100978.23;105905;1259;61161;-76
2023/05/21 10:58:43;;;;;;;10.10;9.10;;;;;;;27.07;47.58;100976.71;106849;1259;61267;-77
2023/05/21 11:01:11;;;;;;;10.90;9.80;;;;;;;27.29;47.36;100970.27;105799;1261;72772;-73
2023/05/21 11:03:38;;;;;;;10.60;9.40;;;;;;;27.56;47.40;100971.54;106200;1259;70486;-75
2023/05/21 11:06:05;;;;;;;9.30;8.40;;;;;;;27.64;45.56;100973.60;105887;1259;71679;-74
2023/05/21 11:08:34;;;;;;;10.60;9.00;;;;;;;27.59;45.51;100963.83;107317;1259;61198;-73
2023/05/21 11:11:02;;;;;;;10.10;9.00;;;;;;;27.56;46.36;100961.11;108077;1259;61712;-73
2023/05/21 11:13:53;;;;;;;13.50;8.50;;;;;;;27.60;46.09;100959.50;107408;1259;74122;-74
2023/05/21 11:16:24;;;;;;;10.30;9.30;;;;;;;27.65;45.71;100953.36;106671;1259;69660;-75